sensor_id;sensor_type;location;lat;lon;timestamp;P1;durP1;ratioP1;P2;durP2;ratioP2
41966;SDS011;27656;53.068;8.818;2023-09-07T00:01:33;4.23;;;3.83;;
41966;SDS011;27656;53.068;8.818;2023-09-07T00:04:00;4.13;;;3.60;;
41966;SDS011;27656;53.068;8.818;2023-09-07T00:06:27;3.57;;;3.27;;
41966;SDS011;27656;53.068;8.818;2023-09-07T00:08:53;3.83;;;3.40;;
41966;SDS011;27656;53.068;8.818;2023-09-07T00:11:20;5.13;;;3.37;;
41966;SDS011;27656;53.068;8.818;2023-09-07T00:13:46;4.63;;;3.37;;
41966;SDS011;27656;53.068;8.818;2023-09-07T00:16:13;5.30;;;3.60;;
41966;SDS011;27656;53.068;8.818;2023-09-07T00:18:40;4.23;;;3.50;;
41966;SDS011;27656;53.068;8.818;2023-09-07T00:21:07;4.33;;;3.80;;
41966;SDS011;27656;53.068;8.818;2023-09-07T00:23:33;4.10;;;3.70;;
41966;SDS011;27656;53.068;8.818;2023-09-07T00:26:00;4.03;;;3.63;;
41966;SDS011;27656;53.068;8.818;2023-09-07T00:28:27;5.10;;;4.33;;
41966;SDS011;27656;53.068;8.818;2023-09-07T00:30:53;3.90;;;3.53;;
41966;SDS011;27656;53.068;8.818;2023-09-07T00:33:20;4.30;;;3.70;;
41966;SDS011;27656;53.068;8.818;2023-09-07T00:35:46;4.27;;;3.80;;
41966;SDS011;27656;53.068;8.818;2023-09-07T00:38:13;4.43;;;3.97;;
41966;SDS011;27656;53.068;8.818;2023-09-07T00:40:42;6.30;;;4.20;;
41966;SDS011;27656;53.068;8.818;2023-09-07T00:43:10;8.47;;;4.13;;
41966;SDS011;27656;53.068;8.818;2023-09-07T00:45:37;8.57;;;4.40;;
41966;SDS011;27656;53.068;8.818;2023-09-07T00:48:05;5.70;;;4.20;;
41966;SDS011;27656;53.068;8.818;2023-09-07T00:50:32;4.73;;;3.90;;
41966;SDS011;27656;53.068;8.818;2023-09-07T00:52:59;4.60;;;3.70;;
41966;SDS011;27656;53.068;8.818;2023-09-07T00:55:27;4.70;;;3.73;;
41966;SDS011;27656;53.068;8.818;2023-09-07T00:57:54;4.33;;;3.93;;
41966;SDS011;27656;53.068;8.818;2023-09-07T01:00:21;3.90;;;3.50;;
41966;SDS011;27656;53.068;8.818;2023-09-07T01:02:48;5.60;;;3.87;;
41966;SDS011;27656;53.068;8.818;2023-09-07T01:05:14;6.80;;;3.80;;
41966;SDS011;27656;53.068;8.818;2023-09-07T01:07:46;3.90;;;3.50;;
41966;SDS011;27656;53.068;8.818;2023-09-07T01:10:14;4.33;;;3.73;;
41966;SDS011;27656;53.068;8.818;2023-09-07T01:12:40;5.47;;;4.20;;
41966;SDS011;27656;53.068;8.818;2023-09-07T01:15:07;5.90;;;3.83;;
41966;SDS011;27656;53.068;8.818;2023-09-07T01:17:34;5.23;;;4.23;;
41966;SDS011;27656;53.068;8.818;2023-09-07T01:20:03;8.93;;;4.27;;
41966;SDS011;27656;53.068;8.818;2023-09-07T01:22:36;7.73;;;4.57;;
41966;SDS011;27656;53.068;8.818;2023-09-07T01:25:04;5.60;;;4.73;;
41966;SDS011;27656;53.068;8.818;2023-09-07T01:27:33;5.93;;;4.87;;
41966;SDS011;27656;53.068;8.818;2023-09-07T01:30:00;5.50;;;4.50;;
41966;SDS011;27656;53.068;8.818;2023-09-07T01:32:28;5.27;;;4.77;;
41966;SDS011;27656;53.068;8.818;2023-09-07T01:34:55;5.53;;;4.47;;
41966;SDS011;27656;53.068;8.818;2023-09-07T01:37:24;5.97;;;4.80;;
41966;SDS011;27656;53.068;8.818;2023-09-07T01:39:50;6.83;;;4.70;;
41966;SDS011;27656;53.068;8.818;2023-09-07T01:42:19;6.03;;;4.80;;
41966;SDS011;27656;53.068;8.818;2023-09-07T01:44:48;5.43;;;4.30;;
41966;SDS011;27656;53.068;8.818;2023-09-07T01:47:15;4.30;;;3.90;;
41966;SDS011;27656;53.068;8.818;2023-09-07T01:49:41;5.03;;;4.20;;
41966;SDS011;27656;53.068;8.818;2023-09-07T01:52:08;6.57;;;5.00;;
41966;SDS011;27656;53.068;8.818;2023-09-07T01:54:34;5.87;;;4.27;;
41966;SDS011;27656;53.068;8.818;2023-09-07T01:57:01;6.30;;;4.70;;
41966;SDS011;27656;53.068;8.818;2023-09-07T01:59:28;5.30;;;4.80;;
41966;SDS011;27656;53.068;8.818;2023-09-07T02:01:54;6.37;;;4.50;;
41966;SDS011;27656;53.068;8.818;2023-09-07T02:04:21;6.67;;;4.80;;
41966;SDS011;27656;53.068;8.818;2023-09-07T02:06:48;5.50;;;4.67;;
41966;SDS011;27656;53.068;8.818;2023-09-07T02:09:14;5.30;;;4.80;;
41966;SDS011;27656;53.068;8.818;2023-09-07T02:11:41;6.07;;;5.30;;
41966;SDS011;27656;53.068;8.818;2023-09-07T02:14:07;6.03;;;4.50;;
41966;SDS011;27656;53.068;8.818;2023-09-07T02:16:35;9.87;;;5.40;;
41966;SDS011;27656;53.068;8.818;2023-09-07T02:19:02;5.67;;;5.07;;
41966;SDS011;27656;53.068;8.818;2023-09-07T02:21:30;7.10;;;5.40;;
41966;SDS011;27656;53.068;8.818;2023-09-07T02:23:56;5.80;;;5.03;;
41966;SDS011;27656;53.068;8.818;2023-09-07T02:26:23;9.40;;;5.20;;
41966;SDS011;27656;53.068;8.818;2023-09-07T02:28:49;6.93;;;5.80;;
41966;SDS011;27656;53.068;8.818;2023-09-07T02:31:16;7.37;;;5.60;;
41966;SDS011;27656;53.068;8.818;2023-09-07T02:33:43;6.10;;;5.50;;
41966;SDS011;27656;53.068;8.818;2023-09-07T02:36:10;9.27;;;5.33;;
41966;SDS011;27656;53.068;8.818;2023-09-07T02:38:36;8.27;;;5.70;;
41966;SDS011;27656;53.068;8.818;2023-09-07T02:41:03;7.80;;;4.63;;
41966;SDS011;27656;53.068;8.818;2023-09-07T02:43:29;7.67;;;5.20;;
41966;SDS011;27656;53.068;8.818;2023-09-07T02:45:57;7.63;;;4.60;;
41966;SDS011;27656;53.068;8.818;2023-09-07T02:48:23;5.57;;;4.43;;
41966;SDS011;27656;53.068;8.818;2023-09-07T02:50:50;5.80;;;4.67;;
41966;SDS011;27656;53.068;8.818;2023-09-07T02:53:17;6.47;;;4.53;;
41966;SDS011;27656;53.068;8.818;2023-09-07T02:55:43;7.87;;;4.90;;
41966;SDS011;27656;53.068;8.818;2023-09-07T02:58:10;5.30;;;4.80;;
41966;SDS011;27656;53.068;8.818;2023-09-07T03:00:43;5.60;;;4.50;;
41966;SDS011;27656;53.068;8.818;2023-09-07T03:03:11;7.40;;;5.13;;
41966;SDS011;27656;53.068;8.818;2023-09-07T03:05:42;5.53;;;4.90;;
41966;SDS011;27656;53.068;8.818;2023-09-07T03:08:09;6.10;;;4.80;;
41966;SDS011;27656;53.068;8.818;2023-09-07T03:10:36;7.93;;;4.60;;
41966;SDS011;27656;53.068;8.818;2023-09-07T03:13:04;6.27;;;4.87;;
41966;SDS011;27656;53.068;8.818;2023-09-07T03:15:30;6.43;;;4.90;;
41966;SDS011;27656;53.068;8.818;2023-09-07T03:17:57;5.30;;;4.80;;
41966;SDS011;27656;53.068;8.818;2023-09-07T03:20:24;5.93;;;5.33;;
41966;SDS011;27656;53.068;8.818;2023-09-07T03:22:50;6.57;;;5.57;;
41966;SDS011;27656;53.068;8.818;2023-09-07T03:25:17;10.90;;;5.80;;
41966;SDS011;27656;53.068;8.818;2023-09-07T03:27:43;8.37;;;5.93;;
41966;SDS011;27656;53.068;8.818;2023-09-07T03:30:10;8.73;;;6.03;;
41966;SDS011;27656;53.068;8.818;2023-09-07T03:32:37;6.33;;;5.50;;
41966;SDS011;27656;53.068;8.818;2023-09-07T03:35:04;6.63;;;5.70;;
41966;SDS011;27656;53.068;8.818;2023-09-07T03:37:36;6.17;;;5.33;;
41966;SDS011;27656;53.068;8.818;2023-09-07T03:40:04;6.53;;;5.00;;
41966;SDS011;27656;53.068;8.818;2023-09-07T03:42:31;7.43;;;5.47;;
41966;SDS011;27656;53.068;8.818;2023-09-07T03:44:59;6.63;;;6.00;;
41966;SDS011;27656;53.068;8.818;2023-09-07T03:47:26;7.53;;;5.83;;
41966;SDS011;27656;53.068;8.818;2023-09-07T03:49:56;7.13;;;5.67;;
41966;SDS011;27656;53.068;8.818;2023-09-07T03:52:23;8.47;;;5.93;;
41966;SDS011;27656;53.068;8.818;2023-09-07T03:54:56;5.67;;;5.10;;
41966;SDS011;27656;53.068;8.818;2023-09-07T03:57:23;6.67;;;5.97;;
41966;SDS011;27656;53.068;8.818;2023-09-07T03:59:51;7.47;;;5.67;;
41966;SDS011;27656;53.068;8.818;2023-09-07T04:02:18;8.63;;;5.80;;
41966;SDS011;27656;53.068;8.818;2023-09-07T04:04:48;6.50;;;5.90;;
41966;SDS011;27656;53.068;8.818;2023-09-07T04:07:16;7.73;;;5.63;;
41966;SDS011;27656;53.068;8.818;2023-09-07T04:09:43;8.37;;;6.63;;
41966;SDS011;27656;53.068;8.818;2023-09-07T04:12:10;6.27;;;5.50;;
41966;SDS011;27656;53.068;8.818;2023-09-07T04:14:37;7.57;;;5.67;;
41966;SDS011;27656;53.068;8.818;2023-09-07T04:17:04;7.63;;;5.97;;
41966;SDS011;27656;53.068;8.818;2023-09-07T04:19:31;8.27;;;6.30;;
41966;SDS011;27656;53.068;8.818;2023-09-07T04:21:58;10.63;;;6.57;;
41966;SDS011;27656;53.068;8.818;2023-09-07T04:24:24;7.17;;;6.37;;
41966;SDS011;27656;53.068;8.818;2023-09-07T04:26:51;8.70;;;7.17;;
41966;SDS011;27656;53.068;8.818;2023-09-07T04:29:18;8.20;;;6.53;;
41966;SDS011;27656;53.068;8.818;2023-09-07T04:31:44;8.57;;;6.40;;
41966;SDS011;27656;53.068;8.818;2023-09-07T04:34:11;6.53;;;5.93;;
41966;SDS011;27656;53.068;8.818;2023-09-07T04:36:37;7.83;;;6.70;;
41966;SDS011;27656;53.068;8.818;2023-09-07T04:39:04;8.23;;;6.57;;
41966;SDS011;27656;53.068;8.818;2023-09-07T04:41:30;8.23;;;6.50;;
41966;SDS011;27656;53.068;8.818;2023-09-07T04:43:57;8.40;;;6.90;;
41966;SDS011;27656;53.068;8.818;2023-09-07T04:46:24;9.43;;;6.03;;
41966;SDS011;27656;53.068;8.818;2023-09-07T04:48:50;8.80;;;6.47;;
41966;SDS011;27656;53.068;8.818;2023-09-07T04:51:17;8.40;;;5.93;;
41966;SDS011;27656;53.068;8.818;2023-09-07T04:53:43;7.27;;;6.57;;
41966;SDS011;27656;53.068;8.818;2023-09-07T04:56:10;8.23;;;7.00;;
41966;SDS011;27656;53.068;8.818;2023-09-07T04:58:36;9.30;;;6.27;;
41966;SDS011;27656;53.068;8.818;2023-09-07T05:01:03;9.27;;;6.50;;
41966;SDS011;27656;53.068;8.818;2023-09-07T05:03:31;10.07;;;5.93;;
41966;SDS011;27656;53.068;8.818;2023-09-07T05:05:59;12.10;;;6.80;;
41966;SDS011;27656;53.068;8.818;2023-09-07T05:08:26;7.17;;;6.37;;
41966;SDS011;27656;53.068;8.818;2023-09-07T05:10:56;9.10;;;6.57;;
41966;SDS011;27656;53.068;8.818;2023-09-07T05:13:24;12.17;;;7.20;;
41966;SDS011;27656;53.068;8.818;2023-09-07T05:15:51;11.37;;;7.63;;
41966;SDS011;27656;53.068;8.818;2023-09-07T05:18:19;9.30;;;6.87;;
41966;SDS011;27656;53.068;8.818;2023-09-07T05:20:46;8.93;;;6.60;;
41966;SDS011;27656;53.068;8.818;2023-09-07T05:23:18;9.17;;;6.90;;
41966;SDS011;27656;53.068;8.818;2023-09-07T05:25:46;8.33;;;6.60;;
41966;SDS011;27656;53.068;8.818;2023-09-07T05:28:19;11.83;;;7.20;;
41966;SDS011;27656;53.068;8.818;2023-09-07T05:30:47;7.47;;;6.63;;
41966;SDS011;27656;53.068;8.818;2023-09-07T05:33:15;11.27;;;6.70;;
41966;SDS011;27656;53.068;8.818;2023-09-07T05:35:43;7.97;;;6.90;;
41966;SDS011;27656;53.068;8.818;2023-09-07T05:38:11;10.40;;;7.33;;
41966;SDS011;27656;53.068;8.818;2023-09-07T05:40:39;11.50;;;7.10;;
41966;SDS011;27656;53.068;8.818;2023-09-07T05:43:10;10.17;;;7.83;;
41966;SDS011;27656;53.068;8.818;2023-09-07T05:45:41;11.53;;;8.67;;
41966;SDS011;27656;53.068;8.818;2023-09-07T05:48:08;10.47;;;8.10;;
41966;SDS011;27656;53.068;8.818;2023-09-07T05:50:36;11.97;;;8.40;;
41966;SDS011;27656;53.068;8.818;2023-09-07T05:53:04;9.90;;;7.57;;
41966;SDS011;27656;53.068;8.818;2023-09-07T05:55:31;8.87;;;7.20;;
41966;SDS011;27656;53.068;8.818;2023-09-07T05:57:57;10.40;;;7.00;;
41966;SDS011;27656;53.068;8.818;2023-09-07T06:00:24;7.80;;;6.63;;
41966;SDS011;27656;53.068;8.818;2023-09-07T06:02:52;10.60;;;7.70;;
41966;SDS011;27656;53.068;8.818;2023-09-07T06:05:19;8.33;;;6.77;;
41966;SDS011;27656;53.068;8.818;2023-09-07T06:07:45;10.80;;;7.13;;
41966;SDS011;27656;53.068;8.818;2023-09-07T06:10:12;10.47;;;7.40;;
41966;SDS011;27656;53.068;8.818;2023-09-07T06:12:39;8.77;;;7.17;;
41966;SDS011;27656;53.068;8.818;2023-09-07T06:15:05;7.83;;;6.77;;
41966;SDS011;27656;53.068;8.818;2023-09-07T06:17:32;12.23;;;8.47;;
41966;SDS011;27656;53.068;8.818;2023-09-07T06:19:59;8.40;;;7.50;;
41966;SDS011;27656;53.068;8.818;2023-09-07T06:22:26;12.10;;;7.47;;
41966;SDS011;27656;53.068;8.818;2023-09-07T06:24:52;11.80;;;7.03;;
41966;SDS011;27656;53.068;8.818;2023-09-07T06:27:19;8.30;;;7.40;;
41966;SDS011;27656;53.068;8.818;2023-09-07T06:29:45;13.37;;;8.30;;
41966;SDS011;27656;53.068;8.818;2023-09-07T06:32:12;7.10;;;6.03;;
41966;SDS011;27656;53.068;8.818;2023-09-07T06:34:38;9.17;;;6.80;;
41966;SDS011;27656;53.068;8.818;2023-09-07T06:37:06;11.13;;;7.80;;
41966;SDS011;27656;53.068;8.818;2023-09-07T06:39:32;10.57;;;7.07;;
41966;SDS011;27656;53.068;8.818;2023-09-07T06:41:59;7.30;;;6.30;;
41966;SDS011;27656;53.068;8.818;2023-09-07T06:44:26;7.87;;;6.80;;
41966;SDS011;27656;53.068;8.818;2023-09-07T06:46:52;8.43;;;6.97;;
41966;SDS011;27656;53.068;8.818;2023-09-07T06:49:19;9.60;;;6.90;;
41966;SDS011;27656;53.068;8.818;2023-09-07T06:51:46;10.20;;;7.17;;
41966;SDS011;27656;53.068;8.818;2023-09-07T06:54:13;8.80;;;6.30;;
41966;SDS011;27656;53.068;8.818;2023-09-07T06:56:40;8.60;;;6.70;;
41966;SDS011;27656;53.068;8.818;2023-09-07T06:59:06;11.10;;;7.10;;
41966;SDS011;27656;53.068;8.818;2023-09-07T07:01:33;9.00;;;6.93;;
41966;SDS011;27656;53.068;8.818;2023-09-07T07:04:00;7.97;;;6.50;;
41966;SDS011;27656;53.068;8.818;2023-09-07T07:06:27;8.57;;;6.10;;
41966;SDS011;27656;53.068;8.818;2023-09-07T07:08:53;10.67;;;6.33;;
41966;SDS011;27656;53.068;8.818;2023-09-07T07:11:19;8.90;;;6.97;;
41966;SDS011;27656;53.068;8.818;2023-09-07T07:13:46;8.83;;;6.40;;
41966;SDS011;27656;53.068;8.818;2023-09-07T07:16:13;10.20;;;6.40;;
41966;SDS011;27656;53.068;8.818;2023-09-07T07:18:40;9.47;;;6.67;;
41966;SDS011;27656;53.068;8.818;2023-09-07T07:21:19;10.00;;;6.87;;
41966;SDS011;27656;53.068;8.818;2023-09-07T07:23:45;11.63;;;6.37;;
41966;SDS011;27656;53.068;8.818;2023-09-07T07:26:12;9.17;;;6.37;;
41966;SDS011;27656;53.068;8.818;2023-09-07T07:28:38;9.13;;;6.87;;
41966;SDS011;27656;53.068;8.818;2023-09-07T07:31:32;10.03;;;6.60;;
41966;SDS011;27656;53.068;8.818;2023-09-07T07:33:58;7.17;;;6.37;;
41966;SDS011;27656;53.068;8.818;2023-09-07T07:36:25;11.17;;;6.40;;
41966;SDS011;27656;53.068;8.818;2023-09-07T07:38:52;8.77;;;6.20;;
41966;SDS011;27656;53.068;8.818;2023-09-07T07:41:18;8.80;;;6.23;;
41966;SDS011;27656;53.068;8.818;2023-09-07T07:43:45;7.13;;;5.83;;
41966;SDS011;27656;53.068;8.818;2023-09-07T07:46:11;7.50;;;5.63;;
41966;SDS011;27656;53.068;8.818;2023-09-07T07:48:38;10.17;;;5.87;;
41966;SDS011;27656;53.068;8.818;2023-09-07T07:51:05;13.23;;;5.87;;
41966;SDS011;27656;53.068;8.818;2023-09-07T07:53:36;8.53;;;5.57;;
41966;SDS011;27656;53.068;8.818;2023-09-07T07:56:02;7.57;;;6.27;;
41966;SDS011;27656;53.068;8.818;2023-09-07T07:58:29;7.20;;;5.57;;
41966;SDS011;27656;53.068;8.818;2023-09-07T08:00:56;8.73;;;5.63;;
41966;SDS011;27656;53.068;8.818;2023-09-07T08:03:25;10.97;;;5.80;;
41966;SDS011;27656;53.068;8.818;2023-09-07T08:05:51;9.03;;;5.40;;
41966;SDS011;27656;53.068;8.818;2023-09-07T08:08:18;8.47;;;5.50;;
41966;SDS011;27656;53.068;8.818;2023-09-07T08:10:44;10.23;;;6.10;;
41966;SDS011;27656;53.068;8.818;2023-09-07T08:13:12;11.47;;;5.67;;
41966;SDS011;27656;53.068;8.818;2023-09-07T08:15:39;9.67;;;5.60;;
41966;SDS011;27656;53.068;8.818;2023-09-07T08:18:06;7.87;;;5.80;;
41966;SDS011;27656;53.068;8.818;2023-09-07T08:20:33;9.37;;;5.33;;
41966;SDS011;27656;53.068;8.818;2023-09-07T08:22:59;7.93;;;5.67;;
41966;SDS011;27656;53.068;8.818;2023-09-07T08:25:29;11.70;;;5.53;;
41966;SDS011;27656;53.068;8.818;2023-09-07T08:27:56;9.07;;;5.43;;
41966;SDS011;27656;53.068;8.818;2023-09-07T08:30:25;6.07;;;5.27;;
41966;SDS011;27656;53.068;8.818;2023-09-07T08:32:52;6.83;;;4.97;;
41966;SDS011;27656;53.068;8.818;2023-09-07T08:35:19;7.87;;;5.10;;
41966;SDS011;27656;53.068;8.818;2023-09-07T08:37:45;8.32;;;5.10;;
41966;SDS011;27656;53.068;8.818;2023-09-07T08:40:12;6.57;;;4.40;;
41966;SDS011;27656;53.068;8.818;2023-09-07T08:42:38;7.20;;;4.82;;
41966;SDS011;27656;53.068;8.818;2023-09-07T08:45:05;8.20;;;5.03;;
41966;SDS011;27656;53.068;8.818;2023-09-07T08:47:36;8.82;;;5.38;;
41966;SDS011;27656;53.068;8.818;2023-09-07T08:50:04;10.05;;;5.20;;
41966;SDS011;27656;53.068;8.818;2023-09-07T08:52:33;7.63;;;5.22;;
41966;SDS011;27656;53.068;8.818;2023-09-07T08:55:00;6.00;;;5.05;;
41966;SDS011;27656;53.068;8.818;2023-09-07T08:57:31;6.32;;;5.35;;
41966;SDS011;27656;53.068;8.818;2023-09-07T08:59:58;8.55;;;5.53;;
41966;SDS011;27656;53.068;8.818;2023-09-07T09:02:25;5.85;;;4.93;;
41966;SDS011;27656;53.068;8.818;2023-09-07T09:04:52;7.85;;;5.40;;
41966;SDS011;27656;53.068;8.818;2023-09-07T09:07:20;15.73;;;7.30;;
41966;SDS011;27656;53.068;8.818;2023-09-07T09:09:48;5.93;;;4.68;;
41966;SDS011;27656;53.068;8.818;2023-09-07T09:12:16;7.65;;;5.07;;
41966;SDS011;27656;53.068;8.818;2023-09-07T09:14:43;6.80;;;5.00;;
41966;SDS011;27656;53.068;8.818;2023-09-07T09:17:12;8.73;;;5.25;;
41966;SDS011;27656;53.068;8.818;2023-09-07T09:19:40;8.27;;;5.38;;
41966;SDS011;27656;53.068;8.818;2023-09-07T09:22:08;6.43;;;5.20;;
41966;SDS011;27656;53.068;8.818;2023-09-07T09:24:35;15.32;;;5.75;;
41966;SDS011;27656;53.068;8.818;2023-09-07T09:27:01;8.18;;;4.45;;
41966;SDS011;27656;53.068;8.818;2023-09-07T09:29:29;8.52;;;4.90;;
41966;SDS011;27656;53.068;8.818;2023-09-07T09:31:55;9.45;;;5.32;;
41966;SDS011;27656;53.068;8.818;2023-09-07T09:34:22;10.25;;;4.97;;
41966;SDS011;27656;53.068;8.818;2023-09-07T09:36:49;6.63;;;4.68;;
41966;SDS011;27656;53.068;8.818;2023-09-07T09:39:22;8.57;;;5.00;;
41966;SDS011;27656;53.068;8.818;2023-09-07T09:41:50;6.93;;;4.65;;
41966;SDS011;27656;53.068;8.818;2023-09-07T09:44:20;10.23;;;4.90;;
41966;SDS011;27656;53.068;8.818;2023-09-07T09:46:51;7.07;;;4.20;;
41966;SDS011;27656;53.068;8.818;2023-09-07T09:49:23;6.30;;;4.95;;
41966;SDS011;27656;53.068;8.818;2023-09-07T09:51:50;7.13;;;4.43;;
41966;SDS011;27656;53.068;8.818;2023-09-07T09:54:17;6.53;;;4.18;;
41966;SDS011;27656;53.068;8.818;2023-09-07T09:56:44;5.18;;;4.38;;
41966;SDS011;27656;53.068;8.818;2023-09-07T09:59:12;6.03;;;4.28;;
41966;SDS011;27656;53.068;8.818;2023-09-07T10:01:41;7.00;;;4.05;;
41966;SDS011;27656;53.068;8.818;2023-09-07T10:04:14;7.15;;;3.80;;
41966;SDS011;27656;53.068;8.818;2023-09-07T10:06:56;7.78;;;4.35;;
41966;SDS011;27656;53.068;8.818;2023-09-07T10:09:34;6.25;;;4.22;;
41966;SDS011;27656;53.068;8.818;2023-09-07T10:12:03;6.60;;;4.13;;
41966;SDS011;27656;53.068;8.818;2023-09-07T10:14:37;5.43;;;3.60;;
41966;SDS011;27656;53.068;8.818;2023-09-07T10:17:06;6.85;;;4.20;;
41966;SDS011;27656;53.068;8.818;2023-09-07T10:19:33;8.13;;;4.22;;
41966;SDS011;27656;53.068;8.818;2023-09-07T10:22:03;4.20;;;3.80;;
41966;SDS011;27656;53.068;8.818;2023-09-07T10:24:30;4.25;;;3.67;;
41966;SDS011;27656;53.068;8.818;2023-09-07T10:27:03;7.40;;;4.20;;
41966;SDS011;27656;53.068;8.818;2023-09-07T10:29:42;7.00;;;4.00;;
41966;SDS011;27656;53.068;8.818;2023-09-07T10:32:11;6.72;;;4.18;;
41966;SDS011;27656;53.068;8.818;2023-09-07T10:34:45;5.70;;;3.95;;
41966;SDS011;27656;53.068;8.818;2023-09-07T10:37:12;7.22;;;4.57;;
41966;SDS011;27656;53.068;8.818;2023-09-07T10:39:40;6.75;;;4.00;;
41966;SDS011;27656;53.068;8.818;2023-09-07T10:42:25;5.40;;;3.70;;
41966;SDS011;27656;53.068;8.818;2023-09-07T10:44:52;6.47;;;3.90;;
41966;SDS011;27656;53.068;8.818;2023-09-07T10:47:19;5.13;;;3.95;;
41966;SDS011;27656;53.068;8.818;2023-09-07T10:49:46;7.28;;;4.22;;
41966;SDS011;27656;53.068;8.818;2023-09-07T10:52:13;4.75;;;4.25;;
41966;SDS011;27656;53.068;8.818;2023-09-07T10:54:39;7.13;;;4.40;;
41966;SDS011;27656;53.068;8.818;2023-09-07T10:57:10;7.38;;;4.20;;
41966;SDS011;27656;53.068;8.818;2023-09-07T10:59:44;7.35;;;4.22;;
41966;SDS011;27656;53.068;8.818;2023-09-07T11:02:11;5.35;;;4.15;;
41966;SDS011;27656;53.068;8.818;2023-09-07T11:04:38;6.28;;;4.18;;
41966;SDS011;27656;53.068;8.818;2023-09-07T11:07:04;8.82;;;4.35;;
41966;SDS011;27656;53.068;8.818;2023-09-07T11:09:31;5.90;;;3.92;;
41966;SDS011;27656;53.068;8.818;2023-09-07T11:12:03;6.45;;;3.95;;
41966;SDS011;27656;53.068;8.818;2023-09-07T11:14:30;4.80;;;3.80;;
41966;SDS011;27656;53.068;8.818;2023-09-07T11:16:57;7.25;;;3.70;;
41966;SDS011;27656;53.068;8.818;2023-09-07T11:19:23;9.07;;;4.03;;
41966;SDS011;27656;53.068;8.818;2023-09-07T11:21:52;6.80;;;3.65;;
41966;SDS011;27656;53.068;8.818;2023-09-07T11:24:19;6.13;;;3.72;;
41966;SDS011;27656;53.068;8.818;2023-09-07T11:26:47;5.95;;;3.70;;
41966;SDS011;27656;53.068;8.818;2023-09-07T11:29:17;6.57;;;3.88;;
41966;SDS011;27656;53.068;8.818;2023-09-07T11:31:53;7.20;;;3.70;;
41966;SDS011;27656;53.068;8.818;2023-09-07T11:34:20;4.82;;;3.33;;
41966;SDS011;27656;53.068;8.818;2023-09-07T11:36:47;5.93;;;4.03;;
41966;SDS011;27656;53.068;8.818;2023-09-07T11:39:15;5.80;;;3.53;;
41966;SDS011;27656;53.068;8.818;2023-09-07T11:41:42;5.93;;;3.47;;
41966;SDS011;27656;53.068;8.818;2023-09-07T11:44:10;5.75;;;3.97;;
41966;SDS011;27656;53.068;8.818;2023-09-07T11:46:38;7.30;;;3.47;;
41966;SDS011;27656;53.068;8.818;2023-09-07T11:49:06;7.93;;;3.70;;
41966;SDS011;27656;53.068;8.818;2023-09-07T11:51:33;6.63;;;3.83;;
41966;SDS011;27656;53.068;8.818;2023-09-07T11:54:01;6.13;;;3.70;;
41966;SDS011;27656;53.068;8.818;2023-09-07T11:56:28;5.72;;;3.85;;
41966;SDS011;27656;53.068;8.818;2023-09-07T11:58:55;7.15;;;4.30;;
41966;SDS011;27656;53.068;8.818;2023-09-07T12:01:22;4.80;;;3.60;;
41966;SDS011;27656;53.068;8.818;2023-09-07T12:03:48;9.38;;;3.65;;
41966;SDS011;27656;53.068;8.818;2023-09-07T12:06:15;5.57;;;3.42;;
41966;SDS011;27656;53.068;8.818;2023-09-07T12:08:42;7.05;;;3.78;;
41966;SDS011;27656;53.068;8.818;2023-09-07T12:11:24;6.00;;;3.53;;
41966;SDS011;27656;53.068;8.818;2023-09-07T12:13:51;8.13;;;3.75;;
41966;SDS011;27656;53.068;8.818;2023-09-07T12:16:17;5.28;;;3.50;;
41966;SDS011;27656;53.068;8.818;2023-09-07T12:18:44;6.65;;;3.30;;
41966;SDS011;27656;53.068;8.818;2023-09-07T12:21:11;5.10;;;3.63;;
41966;SDS011;27656;53.068;8.818;2023-09-07T12:23:37;5.60;;;3.20;;
41966;SDS011;27656;53.068;8.818;2023-09-07T12:26:04;6.28;;;3.72;;
41966;SDS011;27656;53.068;8.818;2023-09-07T12:28:31;5.50;;;3.75;;
41966;SDS011;27656;53.068;8.818;2023-09-07T12:31:00;4.35;;;3.42;;
41966;SDS011;27656;53.068;8.818;2023-09-07T12:33:27;6.70;;;3.58;;
41966;SDS011;27656;53.068;8.818;2023-09-07T12:35:57;7.07;;;3.72;;
41966;SDS011;27656;53.068;8.818;2023-09-07T12:38:23;4.97;;;3.40;;
41966;SDS011;27656;53.068;8.818;2023-09-07T12:40:54;5.47;;;3.38;;
41966;SDS011;27656;53.068;8.818;2023-09-07T12:43:21;4.63;;;3.70;;
41966;SDS011;27656;53.068;8.818;2023-09-07T12:45:48;4.70;;;3.72;;
41966;SDS011;27656;53.068;8.818;2023-09-07T12:48:14;4.90;;;3.90;;
41966;SDS011;27656;53.068;8.818;2023-09-07T12:50:42;6.78;;;3.60;;
41966;SDS011;27656;53.068;8.818;2023-09-07T12:53:09;6.20;;;3.50;;
41966;SDS011;27656;53.068;8.818;2023-09-07T12:55:35;4.80;;;3.33;;
41966;SDS011;27656;53.068;8.818;2023-09-07T12:58:02;3.58;;;3.08;;
41966;SDS011;27656;53.068;8.818;2023-09-07T13:00:29;8.13;;;3.13;;
41966;SDS011;27656;53.068;8.818;2023-09-07T13:02:55;4.65;;;3.10;;
41966;SDS011;27656;53.068;8.818;2023-09-07T13:05:22;6.90;;;3.30;;
41966;SDS011;27656;53.068;8.818;2023-09-07T13:07:49;5.93;;;3.53;;
41966;SDS011;27656;53.068;8.818;2023-09-07T13:10:16;4.70;;;3.15;;
41966;SDS011;27656;53.068;8.818;2023-09-07T13:12:42;6.20;;;3.15;;
41966;SDS011;27656;53.068;8.818;2023-09-07T13:15:09;5.18;;;2.85;;
41966;SDS011;27656;53.068;8.818;2023-09-07T13:17:36;6.95;;;3.10;;
41966;SDS011;27656;53.068;8.818;2023-09-07T13:20:03;3.85;;;3.38;;
41966;SDS011;27656;53.068;8.818;2023-09-07T13:22:30;6.65;;;3.90;;
41966;SDS011;27656;53.068;8.818;2023-09-07T13:24:56;4.68;;;3.30;;
41966;SDS011;27656;53.068;8.818;2023-09-07T13:27:23;3.90;;;3.42;;
41966;SDS011;27656;53.068;8.818;2023-09-07T13:29:52;5.25;;;3.60;;
41966;SDS011;27656;53.068;8.818;2023-09-07T13:32:18;5.55;;;3.55;;
41966;SDS011;27656;53.068;8.818;2023-09-07T13:34:45;9.05;;;3.30;;
41966;SDS011;27656;53.068;8.818;2023-09-07T13:37:11;4.65;;;3.40;;
41966;SDS011;27656;53.068;8.818;2023-09-07T13:39:38;6.80;;;3.92;;
41966;SDS011;27656;53.068;8.818;2023-09-07T13:42:04;6.13;;;3.78;;
41966;SDS011;27656;53.068;8.818;2023-09-07T13:44:31;6.47;;;3.22;;
41966;SDS011;27656;53.068;8.818;2023-09-07T13:46:57;5.35;;;3.28;;
41966;SDS011;27656;53.068;8.818;2023-09-07T13:49:24;4.80;;;3.58;;
41966;SDS011;27656;53.068;8.818;2023-09-07T13:51:51;7.50;;;3.60;;
41966;SDS011;27656;53.068;8.818;2023-09-07T13:54:18;4.10;;;3.40;;
41966;SDS011;27656;53.068;8.818;2023-09-07T13:56:44;4.07;;;3.63;;
41966;SDS011;27656;53.068;8.818;2023-09-07T13:59:13;6.15;;;4.20;;
41966;SDS011;27656;53.068;8.818;2023-09-07T14:01:39;4.68;;;3.80;;
41966;SDS011;27656;53.068;8.818;2023-09-07T14:04:06;6.53;;;4.05;;
41966;SDS011;27656;53.068;8.818;2023-09-07T14:06:32;6.60;;;3.78;;
41966;SDS011;27656;53.068;8.818;2023-09-07T14:08:59;8.15;;;3.88;;
41966;SDS011;27656;53.068;8.818;2023-09-07T14:11:25;6.20;;;3.70;;
41966;SDS011;27656;53.068;8.818;2023-09-07T14:13:52;5.55;;;3.65;;
41966;SDS011;27656;53.068;8.818;2023-09-07T14:16:19;5.00;;;3.50;;
41966;SDS011;27656;53.068;8.818;2023-09-07T14:18:47;6.90;;;3.70;;
41966;SDS011;27656;53.068;8.818;2023-09-07T14:21:14;5.30;;;3.90;;
41966;SDS011;27656;53.068;8.818;2023-09-07T14:23:42;8.43;;;3.50;;
41966;SDS011;27656;53.068;8.818;2023-09-07T14:26:09;4.13;;;3.53;;
41966;SDS011;27656;53.068;8.818;2023-09-07T14:28:36;3.47;;;3.17;;
41966;SDS011;27656;53.068;8.818;2023-09-07T14:31:07;5.00;;;3.67;;
41966;SDS011;27656;53.068;8.818;2023-09-07T14:33:34;4.65;;;3.17;;
41966;SDS011;27656;53.068;8.818;2023-09-07T14:36:05;7.45;;;3.92;;
41966;SDS011;27656;53.068;8.818;2023-09-07T14:38:33;6.22;;;3.70;;
41966;SDS011;27656;53.068;8.818;2023-09-07T14:41:06;8.93;;;3.97;;
41966;SDS011;27656;53.068;8.818;2023-09-07T14:43:38;7.15;;;3.35;;
41966;SDS011;27656;53.068;8.818;2023-09-07T14:46:05;9.50;;;3.72;;
41966;SDS011;27656;53.068;8.818;2023-09-07T14:48:32;13.75;;;3.88;;